createdAt,value
2023-04-26T00:00:13.394Z,99.90
2023-04-26T00:02:40.209Z,99.90
2023-04-26T00:05:07.880Z,99.90
2023-04-26T00:07:35.474Z,99.90
2023-04-26T00:10:02.129Z,99.90
2023-04-26T00:12:28.881Z,99.90
2023-04-26T00:14:57.030Z,99.90
2023-04-26T00:17:36.134Z,99.90
2023-04-26T00:20:04.234Z,99.90
2023-04-26T00:22:31.399Z,99.90
2023-04-26T00:24:58.107Z,99.90
2023-04-26T00:27:43.805Z,99.90
2023-04-26T00:30:11.178Z,99.90
2023-04-26T00:32:37.839Z,99.90
2023-04-26T00:35:06.489Z,99.90
2023-04-26T00:37:34.350Z,99.90
2023-04-26T00:40:01.140Z,99.90
2023-04-26T00:42:27.894Z,99.90
2023-04-26T00:44:57.606Z,99.90
2023-04-26T00:47:43.356Z,99.90
2023-04-26T00:50:10.603Z,99.90
2023-04-26T00:52:37.176Z,99.90
2023-04-26T00:55:03.995Z,99.90
2023-04-26T00:57:32.788Z,99.90
2023-04-26T00:59:59.428Z,99.90
2023-04-26T01:02:26.839Z,99.90
2023-04-26T01:04:53.543Z,99.90
2023-04-26T01:07:21.309Z,99.90
2023-04-26T01:09:47.897Z,99.90
2023-04-26T01:12:14.563Z,99.90
2023-04-26T01:14:41.249Z,99.90
2023-04-26T01:17:08.155Z,99.90
2023-04-26T01:19:37.432Z,99.90
2023-04-26T01:22:04.272Z,99.90
2023-04-26T01:24:30.879Z,99.90
2023-04-26T01:26:57.530Z,99.90
2023-04-26T01:29:25.506Z,99.90
2023-04-26T01:31:52.181Z,99.90
2023-04-26T01:34:19.400Z,99.90
2023-04-26T01:36:46.031Z,99.90
2023-04-26T01:39:32.649Z,99.90
2023-04-26T01:41:59.391Z,99.90
2023-04-26T01:44:26.315Z,99.90
2023-04-26T01:46:52.933Z,99.90
2023-04-26T01:49:38.648Z,99.90
2023-04-26T01:52:05.335Z,99.90
2023-04-26T01:54:32.046Z,99.90
2023-04-26T01:57:00.064Z,99.90
2023-04-26T01:59:28.033Z,99.90
2023-04-26T02:01:54.778Z,99.90
2023-04-26T02:04:21.515Z,99.90
2023-04-26T02:06:48.152Z,99.90
2023-04-26T02:09:18.242Z,99.90
2023-04-26T02:11:47.393Z,99.90
2023-04-26T02:14:14.144Z,99.90
2023-04-26T02:16:41.920Z,99.90
2023-04-26T02:19:27.679Z,99.90
2023-04-26T02:21:54.270Z,99.90
2023-04-26T02:24:22.079Z,99.90
2023-04-26T02:26:48.765Z,99.90
2023-04-26T02:29:15.784Z,99.90
2023-04-26T02:31:42.432Z,99.90
2023-04-26T02:34:09.149Z,99.90
2023-04-26T02:36:35.921Z,99.90
2023-04-26T02:39:03.535Z,99.90
2023-04-26T02:41:30.207Z,99.90
2023-04-26T02:43:57.086Z,99.90
2023-04-26T02:46:23.942Z,99.90
2023-04-26T02:48:52.045Z,99.90
2023-04-26T02:51:19.172Z,99.90
2023-04-26T02:53:45.886Z,99.90
2023-04-26T02:56:12.577Z,99.90
2023-04-26T02:58:41.260Z,99.90
2023-04-26T03:01:08.651Z,99.90
2023-04-26T03:03:35.707Z,99.90
2023-04-26T03:06:02.519Z,99.90
2023-04-26T03:08:29.230Z,99.90
2023-04-26T03:10:55.905Z,99.90
2023-04-26T03:13:22.580Z,99.90
2023-04-26T03:15:50.030Z,99.90
2023-04-26T03:18:17.866Z,99.90
2023-04-26T03:20:44.519Z,99.90
2023-04-26T03:23:11.180Z,99.90
2023-04-26T03:25:38.233Z,99.90
2023-04-26T03:28:06.168Z,99.90
2023-04-26T03:30:33.114Z,99.90
2023-04-26T03:33:00.196Z,99.90
2023-04-26T03:35:26.986Z,99.90
2023-04-26T03:37:54.459Z,99.90
2023-04-26T03:40:22.647Z,99.90
2023-04-26T03:42:49.233Z,99.90
2023-04-26T03:45:15.872Z,99.90
2023-04-26T03:48:02.816Z,99.90
2023-04-26T03:50:29.510Z,99.90
2023-04-26T03:52:56.554Z,99.90
2023-04-26T03:55:23.197Z,99.90
2023-04-26T03:57:51.033Z,99.90
2023-04-26T04:00:17.701Z,99.90
2023-04-26T04:02:44.423Z,99.90
2023-04-26T04:05:16.755Z,99.90
2023-04-26T04:07:43.952Z,99.90
2023-04-26T04:10:10.895Z,99.90
2023-04-26T04:12:39.090Z,99.90
2023-04-26T04:15:05.730Z,99.90
2023-04-26T04:17:35.017Z,99.90
2023-04-26T04:20:03.501Z,99.90
2023-04-26T04:22:30.271Z,99.90
2023-04-26T04:24:57.482Z,99.90
2023-04-26T04:27:26.866Z,99.90
2023-04-26T04:29:56.501Z,99.90
2023-04-26T04:32:24.889Z,99.90
2023-04-26T04:34:53.863Z,99.90
2023-04-26T04:37:22.934Z,99.90
2023-04-26T04:39:49.517Z,99.90
2023-04-26T04:42:16.514Z,99.90
2023-04-26T04:44:43.336Z,99.90
2023-04-26T04:47:10.298Z,99.90
2023-04-26T04:49:37.989Z,99.90
2023-04-26T04:52:04.565Z,99.90
2023-04-26T04:54:31.290Z,99.90
2023-04-26T04:56:57.916Z,99.90
2023-04-26T04:59:25.188Z,99.90
2023-04-26T05:01:52.140Z,99.90
2023-04-26T05:04:19.130Z,99.90
2023-04-26T05:06:45.934Z,99.90
2023-04-26T05:09:15.574Z,99.90
2023-04-26T05:11:42.371Z,99.90
2023-04-26T05:14:10.726Z,99.90
2023-04-26T05:16:38.436Z,99.90
2023-04-26T05:19:08.672Z,99.90
2023-04-26T05:21:36.564Z,99.90
2023-04-26T05:24:03.306Z,99.90
2023-04-26T05:26:30.304Z,99.90
2023-04-26T05:29:39.466Z,99.90
2023-04-26T05:32:23.016Z,99.90
2023-04-26T05:35:12.707Z,99.90
2023-04-26T05:37:40.886Z,99.90
2023-04-26T05:40:09.078Z,99.90
2023-04-26T05:42:36.034Z,99.90
2023-04-26T05:45:02.780Z,99.90
2023-04-26T05:47:31.672Z,99.90
2023-04-26T05:49:58.287Z,99.90
2023-04-26T05:52:24.924Z,99.90
2023-04-26T05:54:52.175Z,99.90
2023-04-26T05:57:22.085Z,99.90
2023-04-26T05:59:48.877Z,99.90
2023-04-26T06:02:17.020Z,99.90
2023-04-26T06:04:43.821Z,99.90
2023-04-26T06:07:14.969Z,99.90
2023-04-26T06:09:41.809Z,99.90
2023-04-26T06:12:08.755Z,99.90
2023-04-26T06:14:39.618Z,99.90
2023-04-26T06:17:11.060Z,99.90
2023-04-26T06:19:37.748Z,99.90
2023-04-26T06:22:04.756Z,99.90
2023-04-26T06:24:31.467Z,99.90
2023-04-26T06:26:58.966Z,99.90
2023-04-26T06:29:45.747Z,99.90
2023-04-26T06:32:12.600Z,99.90
2023-04-26T06:34:39.275Z,99.90
2023-04-26T06:37:06.307Z,99.90
2023-04-26T06:39:34.073Z,99.90
2023-04-26T06:42:00.922Z,99.90
2023-04-26T06:44:46.398Z,99.90
2023-04-26T06:47:14.662Z,99.90
2023-04-26T06:49:41.533Z,99.90
2023-04-26T06:52:09.430Z,99.90
2023-04-26T06:54:45.874Z,99.90
2023-04-26T06:57:22.818Z,99.90
2023-04-26T06:59:49.403Z,99.90
2023-04-26T07:02:16.198Z,99.90
2023-04-26T07:04:43.164Z,99.90
2023-04-26T07:07:12.431Z,99.90
2023-04-26T07:09:39.680Z,99.90
2023-04-26T07:12:06.319Z,99.90
2023-04-26T07:14:33.565Z,99.90
2023-04-26T07:17:00.181Z,99.90
2023-04-26T07:19:29.086Z,99.90
2023-04-26T07:21:55.674Z,99.90
2023-04-26T07:24:22.282Z,99.90
2023-04-26T07:26:48.927Z,99.90
2023-04-26T07:29:16.115Z,99.90
2023-04-26T07:31:42.737Z,99.90
2023-04-26T07:34:09.337Z,99.90
2023-04-26T07:36:35.964Z,99.90
2023-04-26T07:39:05.894Z,99.90
2023-04-26T07:41:32.465Z,99.90
2023-04-26T07:43:59.187Z,99.90
2023-04-26T07:46:25.926Z,99.90
2023-04-26T07:48:52.737Z,99.90
2023-04-26T07:51:19.346Z,99.90
2023-04-26T07:53:46.020Z,99.90
2023-04-26T07:56:12.722Z,99.90
2023-04-26T07:58:41.774Z,99.90
2023-04-26T08:01:08.832Z,99.90
2023-04-26T08:03:35.692Z,99.90
2023-04-26T08:06:02.711Z,99.90
2023-04-26T08:08:33.335Z,99.90
2023-04-26T08:11:00.026Z,99.90
2023-04-26T08:13:29.088Z,99.90
2023-04-26T08:15:56.238Z,99.90
2023-04-26T08:18:23.081Z,99.90
2023-04-26T08:20:49.725Z,99.90
2023-04-26T08:23:16.411Z,99.90
2023-04-26T08:25:47.778Z,99.90
2023-04-26T08:28:14.747Z,99.90
2023-04-26T08:30:41.395Z,99.90
2023-04-26T08:33:08.342Z,99.90
2023-04-26T08:35:34.943Z,99.90
2023-04-26T08:38:01.550Z,99.90
2023-04-26T08:40:28.158Z,99.90
2023-04-26T08:42:54.790Z,99.90
2023-04-26T08:45:21.555Z,99.90
2023-04-26T08:47:48.225Z,99.90
2023-04-26T08:50:16.303Z,99.90
2023-04-26T08:52:43.083Z,99.90
2023-04-26T08:55:12.982Z,99.90
2023-04-26T08:57:40.873Z,99.90
2023-04-26T09:00:10.375Z,99.90
2023-04-26T09:02:37.125Z,99.90
2023-04-26T09:05:04.764Z,99.90
2023-04-26T09:07:32.145Z,99.90
2023-04-26T09:09:58.759Z,99.90
2023-04-26T09:12:25.402Z,99.90
2023-04-26T09:14:53.122Z,99.90
2023-04-26T09:17:19.769Z,99.90
2023-04-26T09:19:46.448Z,99.90
2023-04-26T09:22:13.106Z,99.90
2023-04-26T09:24:39.710Z,99.90
2023-04-26T09:27:06.325Z,99.90
2023-04-26T09:29:32.894Z,99.90
2023-04-26T09:31:59.627Z,99.90
2023-04-26T09:34:26.301Z,99.90
2023-04-26T09:36:52.920Z,99.90
2023-04-26T09:39:20.841Z,99.90
2023-04-26T09:41:47.582Z,99.90
2023-04-26T09:44:14.170Z,99.90
2023-04-26T09:46:41.862Z,99.90
2023-04-26T09:49:09.712Z,99.90
2023-04-26T09:51:36.386Z,99.90
2023-04-26T09:54:02.983Z,99.90
2023-04-26T09:56:29.597Z,99.90
2023-04-26T09:59:00.611Z,99.90
2023-04-26T10:01:30.430Z,99.90
2023-04-26T10:03:57.764Z,99.90
2023-04-26T10:06:25.146Z,99.90
2023-04-26T10:08:52.129Z,99.90
2023-04-26T10:11:19.056Z,99.90
2023-04-26T10:13:45.662Z,99.90
2023-04-26T10:16:12.404Z,99.90
2023-04-26T10:18:39.469Z,99.90
2023-04-26T10:21:06.090Z,99.90
2023-04-26T10:23:33.255Z,99.90
2023-04-26T10:25:59.893Z,99.90
2023-04-26T10:28:26.684Z,99.90
2023-04-26T10:30:53.513Z,99.90
2023-04-26T10:33:20.676Z,99.90
2023-04-26T10:35:47.413Z,99.90
2023-04-26T10:38:16.447Z,99.90
2023-04-26T10:40:43.051Z,99.90
2023-04-26T10:43:13.915Z,99.90
2023-04-26T10:45:40.526Z,99.90
2023-04-26T10:48:08.560Z,99.90
2023-04-26T10:50:36.619Z,99.80
2023-04-26T10:53:06.376Z,99.90
2023-04-26T10:55:33.067Z,97.90
2023-04-26T11:01:03.823Z,98.00
2023-04-26T11:03:31.075Z,96.70
2023-04-26T11:05:57.906Z,99.00
2023-04-26T11:08:26.135Z,97.50
2023-04-26T11:10:53.125Z,96.80
2023-04-26T11:13:20.401Z,97.80
2023-04-26T11:15:48.745Z,95.00
2023-04-26T11:18:17.038Z,93.90
2023-04-26T11:20:43.655Z,97.40
2023-04-26T11:23:10.384Z,95.10
2023-04-26T11:25:37.254Z,94.30
2023-04-26T11:28:05.066Z,92.60
2023-04-26T11:30:31.951Z,93.20
2023-04-26T11:32:58.614Z,93.70
2023-04-26T11:35:26.065Z,93.70
2023-04-26T11:38:11.674Z,91.80
2023-04-26T11:40:38.402Z,91.60
2023-04-26T11:46:24.195Z,91.40
2023-04-26T11:48:52.301Z,88.10
2023-04-26T11:51:19.188Z,91.10
2023-04-26T11:53:46.270Z,88.00
2023-04-26T11:56:12.897Z,89.60
2023-04-26T11:58:40.637Z,89.30
2023-04-26T12:01:07.634Z,90.80
2023-04-26T12:03:37.548Z,91.60
2023-04-26T12:06:04.657Z,89.10
2023-04-26T12:08:51.290Z,90.70
2023-04-26T12:11:18.195Z,90.80
2023-04-26T12:13:44.821Z,90.00
2023-04-26T12:16:22.499Z,90.20
2023-04-26T12:18:54.174Z,88.00
2023-04-26T12:21:20.810Z,89.20
2023-04-26T12:23:47.910Z,88.60
2023-04-26T12:26:14.574Z,91.20
2023-04-26T12:28:59.955Z,89.20
2023-04-26T12:31:26.642Z,88.60
2023-04-26T12:33:53.321Z,89.40
2023-04-26T12:36:19.966Z,88.70
2023-04-26T12:38:46.783Z,90.30
2023-04-26T12:41:13.393Z,88.70
2023-04-26T12:43:40.083Z,90.60
2023-04-26T12:46:06.791Z,90.30
2023-04-26T12:48:33.550Z,87.10
2023-04-26T12:51:00.379Z,86.50
2023-04-26T12:53:26.987Z,87.00
2023-04-26T12:55:53.577Z,88.20
2023-04-26T12:58:21.860Z,89.20
2023-04-26T13:00:48.524Z,88.20
2023-04-26T13:03:15.268Z,90.00
2023-04-26T13:05:42.025Z,88.00
2023-04-26T13:08:09.832Z,89.30
2023-04-26T13:10:36.452Z,87.10
2023-04-26T13:13:03.307Z,87.20
2023-04-26T13:15:30.038Z,87.70
2023-04-26T13:17:56.999Z,90.00
2023-04-26T13:20:25.698Z,88.90
2023-04-26T13:22:53.310Z,88.50
2023-04-26T13:25:20.004Z,90.10
2023-04-26T13:28:07.569Z,90.00
2023-04-26T13:30:35.732Z,89.00
2023-04-26T13:33:02.331Z,88.60
2023-04-26T13:35:29.026Z,88.80
2023-04-26T13:37:56.817Z,90.80
2023-04-26T13:40:23.493Z,90.80
2023-04-26T13:42:50.392Z,90.90
2023-04-26T13:45:18.789Z,89.10
2023-04-26T13:47:46.145Z,87.90
2023-04-26T13:50:13.077Z,89.80
2023-04-26T13:52:39.876Z,89.80
2023-04-26T13:55:06.475Z,90.20
2023-04-26T13:57:51.786Z,88.60
2023-04-26T14:00:18.480Z,89.80
2023-04-26T14:02:47.191Z,90.80
2023-04-26T14:05:14.049Z,89.50
2023-04-26T14:07:42.038Z,86.80
2023-04-26T14:10:08.958Z,85.40
2023-04-26T14:12:35.602Z,84.80
2023-04-26T14:15:04.299Z,83.90
2023-04-26T14:17:32.420Z,85.30
2023-04-26T14:19:59.138Z,88.60
2023-04-26T14:22:25.858Z,84.80
2023-04-26T14:24:54.820Z,85.40
2023-04-26T14:27:21.677Z,87.90
2023-04-26T14:29:48.413Z,84.70
2023-04-26T14:32:15.190Z,84.70
2023-04-26T14:34:42.621Z,79.90
2023-04-26T14:37:09.587Z,81.40
2023-04-26T14:39:37.183Z,80.60
2023-04-26T14:42:04.125Z,83.30
2023-04-26T14:44:30.936Z,81.20
2023-04-26T14:46:57.550Z,81.50
2023-04-26T14:49:25.715Z,79.30
2023-04-26T14:51:53.665Z,85.40
2023-04-26T14:54:21.319Z,82.00
2023-04-26T14:56:48.456Z,81.80
2023-04-26T14:59:17.394Z,82.40
2023-04-26T15:01:46.728Z,82.90
2023-04-26T15:04:13.825Z,83.10
2023-04-26T15:06:40.661Z,83.40
2023-04-26T15:09:08.622Z,83.30
2023-04-26T15:11:35.406Z,84.50
2023-04-26T15:14:02.037Z,88.20
2023-04-26T15:16:28.664Z,88.50
2023-04-26T15:18:55.508Z,87.20
2023-04-26T15:21:24.343Z,89.50
2023-04-26T15:23:51.022Z,89.20
2023-04-26T15:26:17.623Z,88.40
2023-04-26T15:28:44.333Z,90.50
2023-04-26T15:31:14.418Z,88.10
2023-04-26T15:33:41.460Z,88.00
2023-04-26T15:36:10.868Z,88.00
2023-04-26T15:38:44.840Z,87.60
2023-04-26T15:41:11.518Z,88.10
2023-04-26T15:43:38.120Z,90.00
2023-04-26T15:46:04.749Z,88.20
2023-04-26T15:48:31.416Z,90.00
2023-04-26T15:50:58.305Z,90.20
2023-04-26T15:53:24.891Z,91.50
2023-04-26T15:55:51.564Z,91.50
2023-04-26T15:58:18.342Z,89.90
2023-04-26T16:00:44.944Z,90.60
2023-04-26T16:03:11.740Z,90.70
2023-04-26T16:05:38.626Z,90.60
2023-04-26T16:08:09.805Z,91.70
2023-04-26T16:10:38.440Z,91.90
2023-04-26T16:13:05.257Z,93.70
2023-04-26T16:15:31.982Z,93.20
2023-04-26T16:18:17.239Z,91.60
2023-04-26T16:20:44.742Z,92.60
2023-04-26T16:23:11.605Z,93.50
2023-04-26T16:25:38.624Z,93.80
2023-04-26T16:28:05.504Z,93.90
2023-04-26T16:30:32.288Z,95.60
2023-04-26T16:32:58.969Z,93.60
2023-04-26T16:35:25.828Z,93.90
2023-04-26T16:37:52.876Z,94.30
2023-04-26T16:40:19.534Z,94.80
2023-04-26T16:42:46.191Z,93.10
2023-04-26T16:45:15.526Z,93.00
2023-04-26T16:47:45.246Z,94.60
2023-04-26T16:50:11.893Z,94.20
2023-04-26T16:52:38.614Z,95.20
2023-04-26T16:55:06.194Z,94.60
2023-04-26T16:57:51.858Z,94.50
2023-04-26T17:00:18.536Z,95.00
2023-04-26T17:02:45.405Z,96.70
2023-04-26T17:05:12.432Z,97.30
2023-04-26T17:07:39.314Z,96.60
2023-04-26T17:10:05.966Z,96.50
2023-04-26T17:12:32.729Z,97.90
2023-04-26T17:14:59.668Z,96.00
2023-04-26T17:17:27.403Z,96.80
2023-04-26T17:19:54.388Z,98.20
2023-04-26T17:22:21.405Z,97.60
2023-04-26T17:24:48.029Z,97.00
2023-04-26T17:27:14.679Z,99.40
2023-04-26T17:29:41.495Z,99.90
2023-04-26T17:32:08.195Z,99.90
2023-04-26T17:34:34.894Z,99.90
2023-04-26T17:37:01.487Z,99.90
2023-04-26T17:39:29.180Z,99.90
2023-04-26T17:41:55.930Z,99.90
2023-04-26T17:44:23.011Z,99.90
2023-04-26T17:46:49.624Z,99.90
2023-04-26T17:49:17.495Z,99.90
2023-04-26T17:51:44.091Z,99.90
2023-04-26T17:54:10.988Z,99.90
2023-04-26T17:56:37.810Z,99.90
2023-04-26T17:59:23.536Z,99.90
2023-04-26T18:01:50.352Z,99.90
2023-04-26T18:04:17.346Z,99.90
2023-04-26T18:06:44.447Z,99.90
2023-04-26T18:09:11.266Z,99.90
2023-04-26T18:11:38.006Z,99.90
2023-04-26T18:14:04.670Z,99.90
2023-04-26T18:16:31.460Z,99.90
2023-04-26T18:18:59.418Z,99.90
2023-04-26T18:21:26.656Z,99.90
2023-04-26T18:23:53.239Z,99.90
2023-04-26T18:26:19.867Z,99.90
2023-04-26T18:29:05.468Z,99.90
2023-04-26T18:31:33.154Z,99.90
2023-04-26T18:33:59.866Z,99.90
2023-04-26T18:36:27.172Z,99.90
2023-04-26T18:38:54.773Z,99.90
2023-04-26T18:41:21.416Z,99.90
2023-04-26T18:43:48.059Z,99.90
2023-04-26T18:46:14.672Z,99.90
2023-04-26T18:48:43.318Z,99.90
2023-04-26T18:51:09.896Z,99.90
2023-04-26T18:53:36.468Z,99.90
2023-04-26T18:56:03.103Z,99.90
2023-04-26T18:58:31.182Z,99.90
2023-04-26T19:00:57.921Z,99.90
2023-04-26T19:03:24.812Z,99.90
2023-04-26T19:05:53.221Z,99.90
2023-04-26T19:08:19.887Z,99.90
2023-04-26T19:10:46.728Z,99.90
2023-04-26T19:13:13.375Z,99.90
2023-04-26T19:15:40.114Z,99.90
2023-04-26T19:18:11.073Z,99.90
2023-04-26T19:20:37.862Z,99.90
2023-04-26T19:23:04.511Z,99.90
2023-04-26T19:25:31.362Z,99.90
2023-04-26T19:27:59.237Z,99.90
2023-04-26T19:30:26.152Z,99.90
2023-04-26T19:32:52.973Z,99.90
2023-04-26T19:35:23.470Z,99.90
2023-04-26T19:37:52.528Z,99.90
2023-04-26T19:40:22.241Z,99.90
2023-04-26T19:42:49.058Z,99.90
2023-04-26T19:45:17.518Z,99.90
2023-04-26T19:47:45.520Z,99.90
2023-04-26T19:50:12.173Z,99.90
2023-04-26T19:52:38.828Z,99.90
2023-04-26T19:55:05.492Z,99.90
2023-04-26T19:57:52.366Z,99.90
2023-04-26T20:00:18.991Z,99.90
2023-04-26T20:02:46.940Z,99.90
2023-04-26T20:05:26.112Z,99.90
2023-04-26T20:07:59.075Z,99.90
2023-04-26T20:10:25.742Z,99.90
2023-04-26T20:12:53.236Z,99.90
2023-04-26T20:15:19.966Z,99.90
2023-04-26T20:17:48.713Z,99.90
2023-04-26T20:20:16.501Z,99.90
2023-04-26T20:22:43.147Z,99.90
2023-04-26T20:25:10.066Z,99.90
2023-04-26T20:27:55.325Z,99.90
2023-04-26T20:30:21.918Z,99.90
2023-04-26T20:32:48.557Z,99.90
2023-04-26T20:35:15.396Z,99.90
2023-04-26T20:38:01.532Z,99.90
2023-04-26T20:40:28.204Z,99.90
2023-04-26T20:42:54.834Z,99.90
2023-04-26T20:45:21.449Z,99.90
2023-04-26T20:47:49.261Z,99.90
2023-04-26T20:50:16.180Z,99.90
2023-04-26T20:52:42.761Z,99.90
2023-04-26T20:55:09.447Z,99.90
2023-04-26T20:57:36.401Z,99.90
2023-04-26T21:00:03.636Z,99.90
2023-04-26T21:02:30.354Z,99.90
2023-04-26T21:04:57.392Z,99.90
2023-04-26T21:07:25.397Z,99.90
2023-04-26T21:09:52.270Z,99.90
2023-04-26T21:12:18.880Z,99.90
2023-04-26T21:14:47.732Z,99.90
2023-04-26T21:17:14.364Z,99.90
2023-04-26T21:19:40.985Z,99.90
2023-04-26T21:22:09.418Z,99.90
2023-04-26T21:24:39.028Z,99.90
2023-04-26T21:27:05.667Z,99.90
2023-04-26T21:29:32.244Z,99.90
2023-04-26T21:31:58.896Z,99.90
2023-04-26T21:34:25.666Z,99.90
2023-04-26T21:36:53.234Z,99.90
2023-04-26T21:39:20.000Z,99.90
2023-04-26T21:41:46.620Z,99.90
2023-04-26T21:44:13.269Z,99.90
2023-04-26T21:46:40.154Z,99.90
2023-04-26T21:49:10.364Z,99.90
2023-04-26T21:51:37.376Z,99.90
2023-04-26T21:54:03.966Z,99.90
2023-04-26T21:56:30.708Z,99.90
2023-04-26T21:59:02.558Z,99.90
2023-04-26T22:01:29.290Z,99.90
2023-04-26T22:03:56.030Z,99.90
2023-04-26T22:06:22.742Z,99.90
2023-04-26T22:08:49.455Z,99.90
2023-04-26T22:11:16.148Z,99.90
2023-04-26T22:13:43.194Z,99.90
2023-04-26T22:16:09.780Z,99.90
2023-04-26T22:18:36.552Z,99.90
2023-04-26T22:21:03.221Z,99.90
2023-04-26T22:23:31.270Z,99.90
2023-04-26T22:26:04.206Z,99.90
2023-04-26T22:28:33.308Z,99.90
2023-04-26T22:31:00.041Z,99.90
2023-04-26T22:33:27.013Z,99.90
2023-04-26T22:35:58.873Z,99.90
2023-04-26T22:38:25.844Z,99.90
2023-04-26T22:40:52.570Z,99.90
2023-04-26T22:43:19.241Z,99.90
2023-04-26T22:45:45.913Z,99.90
2023-04-26T22:48:13.067Z,99.90
2023-04-26T22:50:39.756Z,99.90
2023-04-26T22:53:06.423Z,99.90
2023-04-26T22:55:33.059Z,99.90
2023-04-26T22:58:01.008Z,99.90
2023-04-26T23:00:27.611Z,99.90
2023-04-26T23:02:54.322Z,99.90
2023-04-26T23:05:21.024Z,99.90
2023-04-26T23:07:48.901Z,99.90
2023-04-26T23:10:15.471Z,99.90
2023-04-26T23:12:42.093Z,99.90
2023-04-26T23:15:08.724Z,99.90
2023-04-26T23:17:37.532Z,99.90
2023-04-26T23:20:13.581Z,99.90
2023-04-26T23:22:40.219Z,99.90
2023-04-26T23:25:07.246Z,99.90
2023-04-26T23:27:34.114Z,99.90
2023-04-26T23:30:00.749Z,99.90
2023-04-26T23:32:27.380Z,99.90
2023-04-26T23:34:54.014Z,99.90
2023-04-26T23:37:21.324Z,99.90
2023-04-26T23:39:47.915Z,99.90
2023-04-26T23:42:14.570Z,99.90
2023-04-26T23:44:41.333Z,99.90
2023-04-26T23:47:07.967Z,99.90
2023-04-26T23:49:34.586Z,99.90
2023-04-26T23:52:01.177Z,99.90
2023-04-26T23:54:27.789Z,99.90
2023-04-26T23:56:54.381Z,99.90
2023-04-26T23:59:21.180Z,99.90
